Time;durP1;ratioP1;P1;durP2;ratioP2;P2;SDS_P1;SDS_P2;PMS_P1;PMS_P2;Temp;Humidity;BMP_temperature;BMP_pressure;BME280_temperature;BME280_humidity;BME280_pressure;Samples;Min_cycle;Max_cycle;Signal;HPM_P1;HPM_P2
2023/10/07 00:02:17;;;;;;;5.40;2.50;;;;;;;;;;5052552;28;20044;-76
2023/10/07 00:04:44;;;;;;;4.97;1.83;;;;;;;;;;5035636;28;20044;-76
2023/10/07 00:07:11;;;;;;;4.25;1.98;;;;;;;;;;5053675;28;20109;-75
2023/10/07 00:09:38;;;;;;;4.78;2.55;;;;;;;;;;5043028;28;20037;-75
2023/10/07 00:12:04;;;;;;;6.13;2.50;;;;;;;;;;5046977;28;20094;-76
2023/10/07 00:14:30;;;;;;;3.20;2.17;;;;;;;;;;5051359;28;20491;-77
2023/10/07 00:16:57;;;;;;;2.58;1.65;;;;;;;;;;5049488;28;20048;-75
2023/10/07 00:19:23;;;;;;;5.15;2.60;;;;;;;;;;5047881;28;20125;-75
2023/10/07 00:22:08;;;;;;;2.90;1.83;;;;;;;;;;5052467;28;20512;-76
2023/10/07 00:24:37;;;;;;;5.35;2.30;;;;;;;;;;5024989;28;20105;-75
2023/10/07 00:27:04;;;;;;;4.72;1.90;;;;;;;;;;5042991;28;20060;-75
2023/10/07 00:29:39;;;;;;;3.72;1.80;;;;;;;;;;5045788;28;20088;-75
2023/10/07 00:32:05;;;;;;;3.75;1.60;;;;;;;;;;5050420;28;20070;-76
2023/10/07 00:34:31;;;;;;;3.25;1.50;;;;;;;;;;5045348;28;20037;-76
2023/10/07 00:36:58;;;;;;;5.20;2.00;;;;;;;;;;5034533;28;20187;-76
2023/10/07 00:39:24;;;;;;;6.50;2.70;;;;;;;;;;5050276;28;20555;-77
2023/10/07 00:46:48;;;;;;;5.43;2.70;;;;;;;;;;5048343;28;20111;-76
2023/10/07 00:49:20;;;;;;;5.50;2.47;;;;;;;;;;5043816;28;20032;-75
2023/10/07 00:51:47;;;;;;;6.45;2.25;;;;;;;;;;5046746;28;20032;-76
2023/10/07 00:57:11;;;;;;;3.17;1.65;;;;;;;;;;5024625;28;20037;-76
2023/10/07 00:59:40;;;;;;;3.90;2.13;;;;;;;;;;5057020;28;20033;-76
2023/10/07 01:02:14;;;;;;;4.13;2.17;;;;;;;;;;5026006;28;20434;-75
2023/10/07 01:04:40;;;;;;;8.40;2.65;;;;;;;;;;5041718;28;20060;-76
2023/10/07 01:07:06;;;;;;;5.07;2.35;;;;;;;;;;5053984;28;20138;-76
2023/10/07 01:09:32;;;;;;;5.80;2.15;;;;;;;;;;5047396;28;20033;-75
2023/10/07 01:11:57;;;;;;;3.40;2.05;;;;;;;;;;5049667;28;20071;-76
2023/10/07 01:14:26;;;;;;;4.75;2.70;;;;;;;;;;5035677;28;20041;-75
2023/10/07 01:16:53;;;;;;;4.85;2.10;;;;;;;;;;5043778;28;20040;-76
2023/10/07 01:19:29;;;;;;;4.82;2.30;;;;;;;;;;5050206;28;20055;-76
2023/10/07 01:22:08;;;;;;;3.65;2.20;;;;;;;;;;5043509;28;20032;-76
2023/10/07 01:24:44;;;;;;;5.13;2.03;;;;;;;;;;5038766;28;20044;-75
2023/10/07 01:29:59;;;;;;;4.72;2.58;;;;;;;;;;5044270;28;20035;-77
2023/10/07 01:32:31;;;;;;;4.00;1.88;;;;;;;;;;5042976;28;20044;-77
2023/10/07 01:34:57;;;;;;;6.60;2.35;;;;;;;;;;5052103;28;20055;-74
2023/10/07 01:37:24;;;;;;;5.28;2.25;;;;;;;;;;5036970;28;20036;-75
2023/10/07 01:39:52;;;;;;;3.85;2.00;;;;;;;;;;5048419;28;20656;-76
2023/10/07 01:42:37;;;;;;;3.72;1.88;;;;;;;;;;5046099;28;20041;-76
2023/10/07 01:45:22;;;;;;;4.05;1.70;;;;;;;;;;5045943;28;20051;-75
2023/10/07 01:47:49;;;;;;;4.72;2.35;;;;;;;;;;5038624;28;20090;-75
2023/10/07 01:50:18;;;;;;;5.85;2.20;;;;;;;;;;5047148;28;20132;-76
2023/10/07 01:52:48;;;;;;;2.08;1.52;;;;;;;;;;5030166;28;20162;-75
2023/10/07 01:55:15;;;;;;;2.08;1.25;;;;;;;;;;5051677;28;20099;-76
2023/10/07 01:57:41;;;;;;;6.25;2.42;;;;;;;;;;5045442;28;20037;-75
2023/10/07 02:00:11;;;;;;;5.18;2.10;;;;;;;;;;5046240;28;20028;-76
2023/10/07 02:02:48;;;;;;;4.55;1.80;;;;;;;;;;5030829;28;20029;-76
2023/10/07 02:05:25;;;;;;;2.92;1.50;;;;;;;;;;5044937;28;20033;-77
2023/10/07 02:07:53;;;;;;;3.35;1.77;;;;;;;;;;5032422;28;20032;-76
2023/10/07 02:10:24;;;;;;;3.78;1.63;;;;;;;;;;5035596;28;20547;-76
2023/10/07 02:12:52;;;;;;;3.42;1.73;;;;;;;;;;5044381;28;20131;-76
2023/10/07 02:15:19;;;;;;;4.57;2.10;;;;;;;;;;5044092;28;20033;-75
2023/10/07 02:17:47;;;;;;;3.13;1.52;;;;;;;;;;5039356;28;20038;-76
2023/10/07 02:20:24;;;;;;;4.85;2.03;;;;;;;;;;5040427;28;20475;-75
2023/10/07 02:22:51;;;;;;;3.25;1.75;;;;;;;;;;5045854;28;20032;-76
2023/10/07 02:25:21;;;;;;;2.22;1.70;;;;;;;;;;5036649;28;20056;-76
2023/10/07 02:27:48;;;;;;;4.22;1.70;;;;;;;;;;5042949;28;20567;-77
2023/10/07 02:30:19;;;;;;;2.38;1.48;;;;;;;;;;5047225;28;20033;-76
2023/10/07 02:32:46;;;;;;;3.75;1.88;;;;;;;;;;5028067;28;20117;-76
2023/10/07 02:35:17;;;;;;;5.00;2.00;;;;;;;;;;5048271;28;20036;-76
2023/10/07 02:37:49;;;;;;;2.63;1.60;;;;;;;;;;5037165;28;20195;-75
2023/10/07 02:40:35;;;;;;;3.72;1.92;;;;;;;;;;5053882;28;20277;-76
2023/10/07 02:43:10;;;;;;;2.25;1.55;;;;;;;;;;5031723;28;20091;-76
2023/10/07 02:45:39;;;;;;;2.72;1.92;;;;;;;;;;5042273;28;20032;-76
2023/10/07 02:48:10;;;;;;;4.03;1.50;;;;;;;;;;5034510;28;20075;-76
2023/10/07 02:50:42;;;;;;;4.07;1.70;;;;;;;;;;5043473;28;20409;-76
2023/10/07 02:53:14;;;;;;;6.43;2.70;;;;;;;;;;5036535;28;20033;-77
2023/10/07 02:55:54;;;;;;;3.53;1.80;;;;;;;;;;5043237;28;20150;-76
2023/10/07 02:59:00;;;;;;;4.45;1.48;;;;;;;;;;5048867;28;20122;-75
2023/10/07 03:01:13;;;;;;;4.35;2.13;;;;;;;;;;5021619;28;20049;-76
2023/10/07 03:03:40;;;;;;;6.78;2.33;;;;;;;;;;5047653;28;20044;-75
2023/10/07 03:06:07;;;;;;;5.47;2.28;;;;;;;;;;5046513;28;20092;-74
2023/10/07 03:11:12;;;;;;;3.75;1.75;;;;;;;;;;5043248;28;20044;-77
2023/10/07 03:13:39;;;;;;;3.20;1.60;;;;;;;;;;5036823;28;20439;-77
2023/10/07 03:19:06;;;;;;;4.00;2.00;;;;;;;;;;5051406;28;20036;-76
2023/10/07 03:24:26;;;;;;;3.83;1.80;;;;;;;;;;5035148;28;20043;-76
2023/10/07 03:26:54;;;;;;;4.18;2.30;;;;;;;;;;5043389;28;20036;-76
2023/10/07 03:29:32;;;;;;;3.17;1.50;;;;;;;;;;5048156;28;20033;-76
2023/10/07 03:31:59;;;;;;;3.55;1.50;;;;;;;;;;5027415;28;20124;-76
2023/10/07 03:34:25;;;;;;;3.55;1.88;;;;;;;;;;5039470;28;20032;-76
2023/10/07 03:42:18;;;;;;;3.47;1.65;;;;;;;;;;5054022;28;20039;-75
2023/10/07 03:44:46;;;;;;;2.47;1.52;;;;;;;;;;5023767;28;20036;-76
2023/10/07 03:47:13;;;;;;;3.47;1.70;;;;;;;;;;5052175;28;20033;-76
2023/10/07 03:49:41;;;;;;;5.40;2.17;;;;;;;;;;5049326;28;20029;-76
2023/10/07 03:52:13;;;;;;;4.32;1.92;;;;;;;;;;5049788;28;20517;-76
2023/10/07 03:54:41;;;;;;;5.13;2.03;;;;;;;;;;5033860;28;20044;-75
2023/10/07 03:57:07;;;;;;;4.20;1.55;;;;;;;;;;5042486;28;20037;-75
2023/10/07 03:59:36;;;;;;;4.10;1.80;;;;;;;;;;5041031;28;20559;-76
2023/10/07 04:02:18;;;;;;;3.10;1.73;;;;;;;;;;5051234;28;20123;-76
2023/10/07 04:04:45;;;;;;;2.90;1.75;;;;;;;;;;5047888;28;20033;-76
2023/10/07 04:07:12;;;;;;;4.90;2.20;;;;;;;;;;5047137;28;20120;-76
2023/10/07 04:09:37;;;;;;;3.67;1.85;;;;;;;;;;5047079;28;20521;-76
2023/10/07 04:12:03;;;;;;;3.03;1.67;;;;;;;;;;5040928;28;20036;-76
2023/10/07 04:14:28;;;;;;;4.85;2.15;;;;;;;;;;5047625;28;20049;-76
2023/10/07 04:17:06;;;;;;;2.17;1.50;;;;;;;;;;5034177;28;20037;-76
2023/10/07 04:19:38;;;;;;;4.22;1.73;;;;;;;;;;5049814;28;20747;-76
2023/10/07 04:22:07;;;;;;;4.50;1.80;;;;;;;;;;5056246;28;20040;-76
2023/10/07 04:24:33;;;;;;;2.88;1.70;;;;;;;;;;5040600;28;20142;-75
2023/10/07 04:27:05;;;;;;;3.38;1.70;;;;;;;;;;5051107;28;20586;-75
2023/10/07 04:29:32;;;;;;;3.47;1.77;;;;;;;;;;5051230;28;20118;-75
2023/10/07 04:32:05;;;;;;;2.58;1.50;;;;;;;;;;5044078;28;20071;-75
2023/10/07 04:34:33;;;;;;;4.47;1.77;;;;;;;;;;5052364;28;20039;-76
2023/10/07 04:39:31;;;;;;;4.00;2.00;;;;;;;;;;5049296;28;20117;-75
2023/10/07 04:42:03;;;;;;;2.95;1.90;;;;;;;;;;5049912;28;20095;-75
2023/10/07 04:45:17;;;;;;;4.25;2.20;;;;;;;;;;5048883;28;20521;-75
2023/10/07 04:47:34;;;;;;;3.92;1.90;;;;;;;;;;5029356;28;20049;-75
2023/10/07 04:52:33;;;;;;;4.05;1.90;;;;;;;;;;5047061;28;20476;-75
2023/10/07 04:55:00;;;;;;;5.97;2.20;;;;;;;;;;5047070;28;20040;-75
2023/10/07 05:03:15;;;;;;;3.38;1.85;;;;;;;;;;5049810;28;20095;-75
2023/10/07 05:05:44;;;;;;;4.93;2.08;;;;;;;;;;5048344;28;20028;-75
2023/10/07 05:08:11;;;;;;;4.40;2.03;;;;;;;;;;5045583;28;20106;-77
2023/10/07 05:10:41;;;;;;;2.50;1.50;;;;;;;;;;5044490;28;20059;-75
2023/10/07 05:13:07;;;;;;;4.38;1.77;;;;;;;;;;5048368;28;20037;-75
2023/10/07 05:15:36;;;;;;;3.50;2.00;;;;;;;;;;5049332;28;20068;-75
2023/10/07 05:18:03;;;;;;;5.60;1.88;;;;;;;;;;5048392;28;20138;-75
2023/10/07 05:20:32;;;;;;;6.05;3.05;;;;;;;;;;5045981;28;20595;-75
2023/10/07 05:22:58;;;;;;;5.22;1.90;;;;;;;;;;5036906;28;20052;-76
2023/10/07 05:25:25;;;;;;;3.72;2.05;;;;;;;;;;5048677;28;20041;-75
2023/10/07 05:27:51;;;;;;;3.55;1.92;;;;;;;;;;5048920;28;20072;-75
2023/10/07 05:30:21;;;;;;;4.85;2.20;;;;;;;;;;5046038;28;20057;-75
2023/10/07 05:32:47;;;;;;;3.85;2.08;;;;;;;;;;5046220;28;20431;-76
2023/10/07 05:35:18;;;;;;;5.75;2.58;;;;;;;;;;5046850;28;20036;-76
2023/10/07 05:37:44;;;;;;;;;;;;;;;;;;5026389;28;20045;-76
2023/10/07 05:40:13;;;;;;;5.95;2.13;;;;;;;;;;5030353;28;19974;-76
2023/10/07 05:42:39;;;;;;;4.35;2.58;;;;;;;;;;5029689;28;20170;-76
2023/10/07 05:45:07;;;;;;;4.68;2.20;;;;;;;;;;5046186;28;20110;-77
2023/10/07 05:47:32;;;;;;;5.78;2.53;;;;;;;;;;5027492;28;20048;-76
2023/10/07 05:50:00;;;;;;;3.42;1.80;;;;;;;;;;5044826;28;20048;-76
2023/10/07 05:52:26;;;;;;;2.00;1.50;;;;;;;;;;5021405;28;20049;-76
2023/10/07 05:54:53;;;;;;;7.20;1.83;;;;;;;;;;5040081;28;20039;-76
2023/10/07 05:57:18;;;;;;;4.80;1.75;;;;;;;;;;5038755;28;20037;-76
2023/10/07 05:59:43;;;;;;;4.38;1.60;;;;;;;;;;5028976;28;20099;-77
2023/10/07 06:02:14;;;;;;;5.28;1.83;;;;;;;;;;5045246;28;20044;-77
2023/10/07 06:04:42;;;;;;;2.95;1.40;;;;;;;;;;5034211;28;20041;-76
2023/10/07 06:07:11;;;;;;;2.78;1.73;;;;;;;;;;5041403;28;20608;-76
2023/10/07 06:09:37;;;;;;;3.55;2.15;;;;;;;;;;5045706;28;20028;-76
2023/10/07 06:12:07;;;;;;;3.92;1.80;;;;;;;;;;5044284;28;20036;-76
2023/10/07 06:14:35;;;;;;;3.13;2.08;;;;;;;;;;5040554;28;20068;-77
2023/10/07 06:17:00;;;;;;;3.00;2.10;;;;;;;;;;5024379;28;20552;-75
2023/10/07 06:19:26;;;;;;;2.95;1.70;;;;;;;;;;5017676;28;20088;-76
2023/10/07 06:21:51;;;;;;;3.38;1.60;;;;;;;;;;5029485;28;20036;-76
2023/10/07 06:24:23;;;;;;;2.45;1.40;;;;;;;;;;5038425;28;20465;-76
2023/10/07 06:26:53;;;;;;;2.63;1.90;;;;;;;;;;5042935;28;20055;-76
2023/10/07 06:29:19;;;;;;;2.60;1.40;;;;;;;;;;5039826;28;20741;-76
2023/10/07 06:31:55;;;;;;;4.30;2.53;;;;;;;;;;5033432;28;20036;-78
2023/10/07 06:34:26;;;;;;;4.07;2.28;;;;;;;;;;5043672;28;20143;-76
2023/10/07 06:36:55;;;;;;;3.40;1.63;;;;;;;;;;5041228;28;20048;-80
2023/10/07 06:39:27;;;;;;;3.40;1.50;;;;;;;;;;5045624;28;20043;-77
2023/10/07 06:41:53;;;;;;;2.55;1.42;;;;;;;;;;5047429;28;20040;-77
2023/10/07 06:44:18;;;;;;;4.88;2.72;;;;;;;;;;5039010;28;20604;-77
2023/10/07 06:46:46;;;;;;;3.75;2.05;;;;;;;;;;5046816;28;20064;-77
2023/10/07 06:49:18;;;;;;;3.22;1.83;;;;;;;;;;5048731;28;20100;-77
2023/10/07 06:51:45;;;;;;;3.47;2.08;;;;;;;;;;5045902;28;20037;-77
2023/10/07 06:54:13;;;;;;;2.63;1.70;;;;;;;;;;5042629;28;20079;-77
2023/10/07 06:56:39;;;;;;;9.43;3.28;;;;;;;;;;5038490;28;20091;-78
2023/10/07 06:59:06;;;;;;;4.38;2.58;;;;;;;;;;5050332;28;20448;-77
2023/10/07 07:01:51;;;;;;;3.85;1.77;;;;;;;;;;5046355;28;20114;-78
2023/10/07 07:04:19;;;;;;;2.33;1.63;;;;;;;;;;5053362;28;20052;-76
2023/10/07 07:06:46;;;;;;;3.97;1.88;;;;;;;;;;5052646;28;20024;-76
2023/10/07 07:12:09;;;;;;;5.90;3.10;;;;;;;;;;5033427;28;20060;-77
2023/10/07 07:14:36;;;;;;;3.47;1.83;;;;;;;;;;5049444;28;20377;-76
2023/10/07 07:20:33;;;;;;;2.50;1.60;;;;;;;;;;5045427;28;20627;-77
2023/10/07 07:22:42;;;;;;;3.72;1.98;;;;;;;;;;5038910;28;20067;-77
2023/10/07 07:25:17;;;;;;;5.00;1.90;;;;;;;;;;5055978;28;20048;-77
2023/10/07 07:27:48;;;;;;;6.50;3.60;;;;;;;;;;5045576;28;20123;-77
2023/10/07 07:30:29;;;;;;;9.68;3.70;;;;;;;;;;5020106;28;20057;-77
2023/10/07 07:32:55;;;;;;;7.65;3.88;;;;;;;;;;5044524;28;20489;-77
2023/10/07 07:35:37;;;;;;;5.78;2.88;;;;;;;;;;5028911;28;20033;-77
2023/10/07 07:38:11;;;;;;;6.53;3.58;;;;;;;;;;5048368;28;20539;-77
2023/10/07 07:40:38;;;;;;;6.97;3.00;;;;;;;;;;5033799;28;20116;-77
2023/10/07 07:43:07;;;;;;;4.32;2.20;;;;;;;;;;5046426;28;20040;-77
2023/10/07 07:45:35;;;;;;;4.18;2.28;;;;;;;;;;5029676;28;20036;-77
2023/10/07 07:48:04;;;;;;;6.78;4.03;;;;;;;;;;5050284;28;20543;-77
2023/10/07 07:50:35;;;;;;;9.85;3.60;;;;;;;;;;5037714;28;20072;-77
2023/10/07 07:53:06;;;;;;;5.60;2.35;;;;;;;;;;5045571;28;20036;-77
2023/10/07 07:55:37;;;;;;;5.85;3.25;;;;;;;;;;5050759;28;20033;-77
2023/10/07 07:58:04;;;;;;;5.82;3.50;;;;;;;;;;5053577;28;20036;-77
2023/10/07 08:00:31;;;;;;;4.55;3.38;;;;;;;;;;5052351;28;20033;-77
2023/10/07 08:02:58;;;;;;;39.63;3.85;;;;;;;;;;5054600;28;20106;-77
2023/10/07 08:05:28;;;;;;;21.27;4.05;;;;;;;;;;5039942;28;20683;-77
2023/10/07 08:07:55;;;;;;;6.30;3.33;;;;;;;;;;5046768;28;20115;-77
2023/10/07 08:10:22;;;;;;;4.75;2.50;;;;;;;;;;5050785;28;20775;-78
2023/10/07 08:12:50;;;;;;;6.05;3.53;;;;;;;;;;5046953;28;20029;-77
2023/10/07 08:15:22;;;;;;;4.72;1.98;;;;;;;;;;5050774;28;20086;-77
2023/10/07 08:17:51;;;;;;;5.70;3.28;;;;;;;;;;5044168;28;20169;-77
2023/10/07 08:20:23;;;;;;;3.30;1.85;;;;;;;;;;5054339;28;20115;-78
2023/10/07 08:22:52;;;;;;;6.75;3.95;;;;;;;;;;5050772;28;20665;-78
2023/10/07 08:25:37;;;;;;;3.60;2.30;;;;;;;;;;5052556;28;20281;-77
2023/10/07 08:30:55;;;;;;;4.38;2.67;;;;;;;;;;4999436;28;20050;-78
2023/10/07 08:33:23;;;;;;;4.63;2.70;;;;;;;;;;5050335;28;20033;-77
2023/10/07 08:35:51;;;;;;;3.97;2.40;;;;;;;;;;5053859;28;20493;-77
2023/10/07 08:38:37;;;;;;;4.93;3.08;;;;;;;;;;5046665;28;20498;-78
2023/10/07 08:41:04;;;;;;;6.00;3.20;;;;;;;;;;5038788;28;20078;-77
2023/10/07 08:43:37;;;;;;;4.00;2.40;;;;;;;;;;5051574;28;20037;-77
2023/10/07 08:46:08;;;;;;;3.53;2.42;;;;;;;;;;5045800;28;20709;-77
2023/10/07 08:48:49;;;;;;;4.97;2.17;;;;;;;;;;5031197;28;20037;-77
2023/10/07 08:51:17;;;;;;;;;;;;;;;;;;5053678;28;20036;-78
2023/10/07 08:53:43;;;;;;;4.90;2.60;;;;;;;;;;5041610;28;20003;-78
2023/10/07 08:56:09;;;;;;;5.18;3.42;;;;;;;;;;5033328;28;20115;-78
2023/10/07 08:58:38;;;;;;;4.72;2.85;;;;;;;;;;5051060;28;20032;-78
2023/10/07 09:01:07;;;;;;;6.15;3.67;;;;;;;;;;5046648;28;20033;-78
2023/10/07 09:03:38;;;;;;;7.43;4.00;;;;;;;;;;5049788;28;20116;-78
2023/10/07 09:06:06;;;;;;;7.93;4.05;;;;;;;;;;5030576;28;20572;-77
2023/10/07 09:08:33;;;;;;;5.95;3.55;;;;;;;;;;5047457;28;20047;-77
2023/10/07 09:10:59;;;;;;;3.58;2.47;;;;;;;;;;5029981;28;20060;-77
2023/10/07 09:13:29;;;;;;;6.20;3.85;;;;;;;;;;5047830;28;20216;-78
2023/10/07 09:15:59;;;;;;;8.63;3.95;;;;;;;;;;5055741;28;20504;-77
2023/10/07 09:18:28;;;;;;;5.95;3.50;;;;;;;;;;5041937;28;20055;-77
2023/10/07 09:20:56;;;;;;;8.32;3.80;;;;;;;;;;5048133;28;20028;-77
2023/10/07 09:23:35;;;;;;;6.47;3.20;;;;;;;;;;5046449;28;20095;-78
2023/10/07 09:26:15;;;;;;;5.90;3.22;;;;;;;;;;5052185;28;20150;-77
2023/10/07 09:28:46;;;;;;;4.40;2.33;;;;;;;;;;5047833;28;20051;-77
2023/10/07 09:31:15;;;;;;;5.20;3.03;;;;;;;;;;5023499;28;20042;-77
2023/10/07 09:33:41;;;;;;;3.47;2.60;;;;;;;;;;5046175;28;20032;-77
2023/10/07 09:39:16;;;;;;;4.75;2.30;;;;;;;;;;5047219;28;20067;-77
2023/10/07 09:41:45;;;;;;;4.93;2.40;;;;;;;;;;5035887;28;20053;-77
2023/10/07 09:47:19;;;;;;;5.57;3.17;;;;;;;;;;5039216;28;20075;-77
2023/10/07 09:49:45;;;;;;;5.05;2.13;;;;;;;;;;5039804;28;20072;-78
2023/10/07 09:52:17;;;;;;;5.55;3.22;;;;;;;;;;5047197;28;20044;-77
2023/10/07 09:55:18;;;;;;;3.00;2.50;;;;;;;;;;5048587;28;20029;-77
2023/10/07 09:58:24;;;;;;;3.78;3.03;;;;;;;;;;5057380;28;20035;-77
2023/10/07 10:01:05;;;;;;;6.38;3.42;;;;;;;;;;5021173;28;20051;-77
2023/10/07 10:03:44;;;;;;;3.38;2.42;;;;;;;;;;5048614;28;20562;-77
2023/10/07 10:06:25;;;;;;;5.95;3.08;;;;;;;;;;5045946;28;20094;-78
2023/10/07 10:08:57;;;;;;;;;;;;;;;;;;5039488;28;20037;-77
2023/10/07 10:12:18;;;;;;;7.97;3.08;;;;;;;;;;5032785;28;19913;-78
2023/10/07 10:16:47;;;;;;;3.97;2.67;;;;;;;;;;5050555;28;20044;-77
2023/10/07 10:19:26;;;;;;;4.90;2.90;;;;;;;;;;5033720;28;20045;-77
2023/10/07 10:21:52;;;;;;;5.28;2.72;;;;;;;;;;5050874;28;20032;-78
2023/10/07 10:24:28;;;;;;;5.45;3.30;;;;;;;;;;5028459;28;20033;-77
2023/10/07 10:27:09;;;;;;;5.72;2.63;;;;;;;;;;5043844;28;20409;-77
2023/10/07 10:29:52;;;;;;;3.35;2.50;;;;;;;;;;5036443;28;20041;-77
2023/10/07 10:32:23;;;;;;;4.70;3.00;;;;;;;;;;5032074;28;20048;-76
2023/10/07 10:34:49;;;;;;;5.53;3.08;;;;;;;;;;5048870;28;20044;-77
2023/10/07 10:37:15;;;;;;;3.33;2.40;;;;;;;;;;5031443;28;20036;-77
2023/10/07 10:39:41;;;;;;;4.90;2.38;;;;;;;;;;5047669;28;20048;-78
2023/10/07 10:42:10;;;;;;;5.03;2.67;;;;;;;;;;5046871;28;20421;-78
2023/10/07 10:44:38;;;;;;;3.75;2.35;;;;;;;;;;5029690;28;20107;-78
2023/10/07 10:47:06;;;;;;;5.25;3.13;;;;;;;;;;5041745;28;20028;-77
2023/10/07 10:49:32;;;;;;;4.22;2.75;;;;;;;;;;5047936;28;20079;-78
2023/10/07 10:51:59;;;;;;;5.25;3.42;;;;;;;;;;5040988;28;20065;-78
2023/10/07 10:54:25;;;;;;;4.28;2.97;;;;;;;;;;5046541;28;20030;-77
2023/10/07 10:56:55;;;;;;;4.95;2.75;;;;;;;;;;5038803;28;20045;-78
2023/10/07 10:59:34;;;;;;;4.07;3.13;;;;;;;;;;5042299;28;21571;-78
2023/10/07 11:02:01;;;;;;;6.13;3.17;;;;;;;;;;5045684;28;20041;-77
2023/10/07 11:04:29;;;;;;;5.90;3.50;;;;;;;;;;5044855;28;20052;-77
2023/10/07 11:06:55;;;;;;;5.25;3.13;;;;;;;;;;5048840;28;20039;-78
2023/10/07 11:09:26;;;;;;;4.30;2.72;;;;;;;;;;5049906;28;20040;-77
2023/10/07 11:11:55;;;;;;;5.07;2.70;;;;;;;;;;5019708;28;20049;-78
2023/10/07 11:14:21;;;;;;;6.22;3.10;;;;;;;;;;5030009;28;20115;-77
2023/10/07 11:16:48;;;;;;;3.25;2.60;;;;;;;;;;5052626;28;20568;-77
2023/10/07 11:19:17;;;;;;;3.90;2.25;;;;;;;;;;5037825;28;20116;-78
2023/10/07 11:21:45;;;;;;;5.68;3.00;;;;;;;;;;5039202;28;20671;-77
2023/10/07 11:24:22;;;;;;;3.08;2.20;;;;;;;;;;5032096;28;20114;-77
2023/10/07 11:26:49;;;;;;;5.45;2.80;;;;;;;;;;5022626;28;20635;-78
2023/10/07 11:29:15;;;;;;;3.88;2.47;;;;;;;;;;5042132;28;20044;-77
2023/10/07 11:31:41;;;;;;;6.15;2.63;;;;;;;;;;5046743;28;20032;-79
2023/10/07 11:34:08;;;;;;;5.70;3.08;;;;;;;;;;5043380;28;20041;-77
2023/10/07 11:36:46;;;;;;;5.72;2.88;;;;;;;;;;5041178;28;20040;-78
2023/10/07 11:39:15;;;;;;;4.15;2.30;;;;;;;;;;5050228;28;20048;-77
2023/10/07 11:41:41;;;;;;;4.18;2.90;;;;;;;;;;5045748;28;20036;-78
2023/10/07 11:44:12;;;;;;;5.40;2.65;;;;;;;;;;5039035;28;20119;-77
2023/10/07 11:46:41;;;;;;;3.85;2.13;;;;;;;;;;5043306;28;20055;-77
2023/10/07 11:49:08;;;;;;;4.20;2.95;;;;;;;;;;5014785;28;20821;-77
2023/10/07 11:51:33;;;;;;;5.28;2.72;;;;;;;;;;5039726;28;20040;-78
2023/10/07 11:54:00;;;;;;;3.60;2.70;;;;;;;;;;5045357;28;20544;-77
2023/10/07 11:56:27;;;;;;;7.10;3.08;;;;;;;;;;5047206;28;20444;-78
2023/10/07 11:58:52;;;;;;;5.55;2.70;;;;;;;;;;5046131;28;20040;-78
2023/10/07 12:01:20;;;;;;;4.88;2.58;;;;;;;;;;5046195;28;20037;-78
2023/10/07 12:03:46;;;;;;;3.92;2.70;;;;;;;;;;5044065;28;20036;-77
2023/10/07 12:06:12;;;;;;;3.17;2.38;;;;;;;;;;5052986;28;20092;-77
2023/10/07 12:08:38;;;;;;;3.25;2.80;;;;;;;;;;5042999;28;20033;-77
2023/10/07 12:11:04;;;;;;;4.00;2.60;;;;;;;;;;5055389;28;20519;-77
2023/10/07 12:13:30;;;;;;;3.25;2.38;;;;;;;;;;5056973;28;20028;-77
2023/10/07 12:15:55;;;;;;;3.22;2.42;;;;;;;;;;5050254;28;20051;-77
2023/10/07 12:18:21;;;;;;;3.10;2.22;;;;;;;;;;5023380;28;20547;-77
2023/10/07 12:20:46;;;;;;;3.10;2.42;;;;;;;;;;5045005;28;20103;-77
2023/10/07 12:23:11;;;;;;;3.97;2.47;;;;;;;;;;5047926;28;20059;-77
2023/10/07 12:25:37;;;;;;;3.67;2.85;;;;;;;;;;5041100;28;20043;-77
2023/10/07 12:28:05;;;;;;;5.53;2.70;;;;;;;;;;5045767;28;20033;-77
2023/10/07 12:30:32;;;;;;;4.78;2.60;;;;;;;;;;5026690;28;20386;-78
2023/10/07 12:33:01;;;;;;;3.10;2.45;;;;;;;;;;5033569;28;20050;-77
2023/10/07 12:35:31;;;;;;;4.53;2.17;;;;;;;;;;5052574;28;20056;-77
2023/10/07 12:37:58;;;;;;;3.42;2.58;;;;;;;;;;5049368;28;20551;-78
2023/10/07 12:40:23;;;;;;;3.78;2.47;;;;;;;;;;5045486;28;20634;-77
2023/10/07 12:42:52;;;;;;;2.92;2.30;;;;;;;;;;5047577;28;20065;-77
2023/10/07 12:45:18;;;;;;;3.97;2.78;;;;;;;;;;5046002;28;20047;-77
2023/10/07 12:47:45;;;;;;;4.20;2.90;;;;;;;;;;5044211;28;20044;-77
2023/10/07 12:50:20;;;;;;;4.50;2.38;;;;;;;;;;5053196;28;20033;-77
2023/10/07 12:52:49;;;;;;;5.43;2.78;;;;;;;;;;5046697;28;20671;-77
2023/10/07 12:55:15;;;;;;;4.85;2.80;;;;;;;;;;5049151;28;20037;-79
2023/10/07 12:57:41;;;;;;;4.15;2.78;;;;;;;;;;5041667;28;20079;-79
2023/10/07 13:00:28;;;;;;;4.85;3.10;;;;;;;;;;5050084;28;20703;-77
2023/10/07 13:02:54;;;;;;;3.60;2.42;;;;;;;;;;5046440;28;20044;-77
2023/10/07 13:05:20;;;;;;;5.65;2.88;;;;;;;;;;5048361;28;20589;-77
2023/10/07 13:07:51;;;;;;;3.75;2.83;;;;;;;;;;5047596;28;20143;-76
2023/10/07 13:10:17;;;;;;;3.88;2.70;;;;;;;;;;5035377;28;20071;-77
2023/10/07 13:12:55;;;;;;;4.30;2.75;;;;;;;;;;5049348;28;20044;-77
2023/10/07 13:15:28;;;;;;;5.93;2.80;;;;;;;;;;5049918;28;20043;-77
2023/10/07 13:17:54;;;;;;;4.45;2.63;;;;;;;;;;5049125;28;20025;-77
2023/10/07 13:20:20;;;;;;;6.15;2.67;;;;;;;;;;5049461;28;20694;-77
2023/10/07 13:22:57;;;;;;;5.85;3.25;;;;;;;;;;5029230;28;20057;-77
2023/10/07 13:25:24;;;;;;;4.80;2.72;;;;;;;;;;5044974;28;20036;-76
2023/10/07 13:27:50;;;;;;;3.22;2.70;;;;;;;;;;5049948;28;20032;-76
2023/10/07 13:30:16;;;;;;;6.43;3.00;;;;;;;;;;5032697;28;20428;-77
2023/10/07 13:32:47;;;;;;;3.70;2.53;;;;;;;;;;5051209;28;20115;-77
2023/10/07 13:35:16;;;;;;;;;;;;;;;;;;5021981;28;20042;-77
2023/10/07 13:37:45;;;;;;;4.45;2.80;;;;;;;;;;5049783;28;20165;-77
2023/10/07 13:40:17;;;;;;;3.05;2.53;;;;;;;;;;5047639;28;20115;-77
2023/10/07 13:42:50;;;;;;;4.32;2.80;;;;;;;;;;5046897;28;20043;-77
2023/10/07 13:45:28;;;;;;;4.32;2.60;;;;;;;;;;5047599;28;20033;-77
2023/10/07 13:47:55;;;;;;;3.88;2.72;;;;;;;;;;5046963;28;20037;-77
2023/10/07 13:50:25;;;;;;;4.43;2.60;;;;;;;;;;5031772;28;20400;-77
2023/10/07 13:55:54;;;;;;;4.70;2.50;;;;;;;;;;5046239;28;20098;-76
2023/10/07 13:58:19;;;;;;;3.50;2.25;;;;;;;;;;5040899;28;20050;-76
2023/10/07 14:00:45;;;;;;;4.38;2.35;;;;;;;;;;5049415;28;20036;-76
2023/10/07 14:03:31;;;;;;;4.75;2.58;;;;;;;;;;5042499;28;20040;-76
2023/10/07 14:05:58;;;;;;;3.75;2.65;;;;;;;;;;5049391;28;20040;-76
2023/10/07 14:08:36;;;;;;;3.45;2.33;;;;;;;;;;5039528;28;20025;-75
2023/10/07 14:11:02;;;;;;;2.65;1.95;;;;;;;;;;5049673;28;20095;-76
2023/10/07 14:13:35;;;;;;;6.30;2.67;;;;;;;;;;5044963;28;20056;-76
2023/10/07 14:16:07;;;;;;;4.93;2.25;;;;;;;;;;5042967;28;20682;-75
2023/10/07 14:18:32;;;;;;;5.65;2.60;;;;;;;;;;5046234;28;20040;-76
2023/10/07 14:21:00;;;;;;;4.88;2.63;;;;;;;;;;5033212;28;20044;-77
2023/10/07 14:23:28;;;;;;;2.53;1.98;;;;;;;;;;5047082;28;20040;-76
2023/10/07 14:25:54;;;;;;;5.15;2.22;;;;;;;;;;5035416;28;20074;-77
2023/10/07 14:28:22;;;;;;;3.50;2.00;;;;;;;;;;5047439;28;20096;-76
2023/10/07 14:30:48;;;;;;;2.85;2.20;;;;;;;;;;5047601;28;20029;-77
2023/10/07 14:33:14;;;;;;;4.05;2.25;;;;;;;;;;5046610;28;20728;-77
2023/10/07 14:35:40;;;;;;;5.18;2.80;;;;;;;;;;5035747;28;20050;-76
2023/10/07 14:38:09;;;;;;;3.75;2.22;;;;;;;;;;5046638;28;20048;-76
2023/10/07 14:40:39;;;;;;;4.60;2.20;;;;;;;;;;5042577;28;20060;-75
2023/10/07 14:43:05;;;;;;;4.60;2.22;;;;;;;;;;5047038;28;20051;-76
2023/10/07 14:45:34;;;;;;;3.95;2.53;;;;;;;;;;5047159;28;20036;-77
2023/10/07 14:48:03;;;;;;;3.42;2.60;;;;;;;;;;5036974;28;20033;-77
2023/10/07 14:50:28;;;;;;;4.38;2.47;;;;;;;;;;5029713;28;20051;-76
2023/10/07 14:52:54;;;;;;;6.55;2.50;;;;;;;;;;5046622;28;20036;-76
2023/10/07 14:55:22;;;;;;;3.40;2.47;;;;;;;;;;5048259;28;20279;-76
2023/10/07 14:57:48;;;;;;;3.55;2.00;;;;;;;;;;5048117;28;20043;-77
2023/10/07 15:00:16;;;;;;;4.25;2.15;;;;;;;;;;5045414;28;20755;-77
2023/10/07 15:02:46;;;;;;;4.10;2.50;;;;;;;;;;5025662;28;20466;-76
2023/10/07 15:05:12;;;;;;;2.67;2.15;;;;;;;;;;5046015;28;20504;-76
2023/10/07 15:07:37;;;;;;;3.17;1.95;;;;;;;;;;5043167;28;20444;-76
2023/10/07 15:10:03;;;;;;;2.60;2.40;;;;;;;;;;5041571;28;20087;-77
2023/10/07 15:12:29;;;;;;;3.13;2.50;;;;;;;;;;5046806;28;20037;-75
2023/10/07 15:14:55;;;;;;;3.97;2.85;;;;;;;;;;5041374;28;20044;-76
2023/10/07 15:17:21;;;;;;;2.72;2.17;;;;;;;;;;5046477;28;20397;-76
2023/10/07 15:19:50;;;;;;;3.63;1.83;;;;;;;;;;5047970;28;20032;-75
2023/10/07 15:22:16;;;;;;;3.58;2.17;;;;;;;;;;5024021;28;20041;-77
2023/10/07 15:24:42;;;;;;;2.25;1.92;;;;;;;;;;5045262;28;20033;-77
2023/10/07 15:27:08;;;;;;;3.38;2.00;;;;;;;;;;5049870;28;20115;-76
2023/10/07 15:29:34;;;;;;;4.45;2.28;;;;;;;;;;5034030;28;20127;-76
2023/10/07 15:31:59;;;;;;;2.42;1.90;;;;;;;;;;5046746;28;20045;-75
2023/10/07 15:34:25;;;;;;;4.20;2.03;;;;;;;;;;5047659;28;20032;-75
2023/10/07 15:36:56;;;;;;;3.97;1.73;;;;;;;;;;5046876;28;20040;-75
2023/10/07 15:39:26;;;;;;;4.22;2.10;;;;;;;;;;5048124;28;20135;-76
2023/10/07 15:41:51;;;;;;;2.50;1.70;;;;;;;;;;5038211;28;20032;-77
2023/10/07 15:44:20;;;;;;;2.35;1.60;;;;;;;;;;5046240;28;20273;-77
2023/10/07 15:46:45;;;;;;;4.30;2.50;;;;;;;;;;5048685;28;20139;-77
2023/10/07 15:49:10;;;;;;;5.57;2.45;;;;;;;;;;5045604;28;20717;-76
2023/10/07 15:51:37;;;;;;;3.15;1.65;;;;;;;;;;5046462;28;20029;-76
2023/10/07 15:54:07;;;;;;;2.28;1.80;;;;;;;;;;5044119;28;20400;-77